createdAt,value
2018-08-19T00:02:11.281Z,17.97
2018-08-19T00:04:40.287Z,17.94
2018-08-19T00:07:09.289Z,17.92
2018-08-19T00:09:38.337Z,17.88
2018-08-19T00:12:07.384Z,17.83
2018-08-19T00:14:37.172Z,17.80
2018-08-19T00:17:06.372Z,17.76
2018-08-19T00:19:36.018Z,17.75
2018-08-19T00:22:04.991Z,17.74
2018-08-19T00:24:34.180Z,17.70
2018-08-19T00:27:03.160Z,17.66
2018-08-19T00:29:37.120Z,17.65
2018-08-19T00:32:06.772Z,17.62
2018-08-19T00:34:36.076Z,17.63
2018-08-19T00:37:06.547Z,17.63
2018-08-19T00:39:35.984Z,17.63
2018-08-19T00:42:05.436Z,17.60
2018-08-19T00:44:34.772Z,17.62
2018-08-19T00:47:03.865Z,17.65
2018-08-19T00:49:32.872Z,17.68
2018-08-19T00:52:03.141Z,17.67
2018-08-19T00:54:33.000Z,17.71
2018-08-19T00:57:02.284Z,17.72
2018-08-19T00:59:32.486Z,17.68
2018-08-19T01:02:01.432Z,17.63
2018-08-19T01:04:30.367Z,17.60
2018-08-19T01:07:00.250Z,17.54
2018-08-19T01:09:31.200Z,17.54
2018-08-19T01:12:00.371Z,17.50
2018-08-19T01:14:29.379Z,17.49
2018-08-19T01:16:58.323Z,17.48
2018-08-19T01:19:27.328Z,17.47
2018-08-19T01:21:56.375Z,17.43
2018-08-19T01:24:25.477Z,17.39
2018-08-19T01:26:54.428Z,17.36
2018-08-19T01:29:35.888Z,17.37
2018-08-19T01:32:12.018Z,17.34
2018-08-19T01:34:44.319Z,17.32
2018-08-19T01:37:14.088Z,17.28
2018-08-19T01:39:43.059Z,17.24
2018-08-19T01:42:12.060Z,17.33
2018-08-19T01:44:42.400Z,17.35
2018-08-19T01:47:11.371Z,17.36
2018-08-19T01:49:40.329Z,17.36
2018-08-19T01:52:09.336Z,17.40
2018-08-19T01:54:38.279Z,17.40
2018-08-19T01:57:07.300Z,17.41
2018-08-19T01:59:36.460Z,17.52
2018-08-19T02:02:06.648Z,17.53
2018-08-19T02:04:41.427Z,17.52
2018-08-19T02:07:10.420Z,17.45
2018-08-19T02:09:53.250Z,17.39
2018-08-19T02:12:22.292Z,17.32
2018-08-19T02:14:51.232Z,17.26
2018-08-19T02:17:20.196Z,17.16
2018-08-19T02:19:49.236Z,17.06
2018-08-19T02:22:18.333Z,17.00
2018-08-19T02:24:47.484Z,17.00
2018-08-19T02:27:16.488Z,17.00
2018-08-19T02:29:45.553Z,16.99
2018-08-19T02:32:14.629Z,16.97
2018-08-19T02:34:45.520Z,16.94
2018-08-19T02:37:15.636Z,16.95
2018-08-19T02:39:46.915Z,16.95
2018-08-19T02:42:26.863Z,16.94
2018-08-19T02:45:02.097Z,16.93
2018-08-19T02:47:31.747Z,16.92
2018-08-19T02:50:00.744Z,16.92
2018-08-19T02:52:32.572Z,16.89
2018-08-19T02:55:02.864Z,16.91
2018-08-19T02:57:32.655Z,16.89
2018-08-19T03:00:02.545Z,16.86
2018-08-19T03:02:35.732Z,16.80
2018-08-19T03:05:06.867Z,16.73
2018-08-19T03:07:35.869Z,16.71
2018-08-19T03:10:08.901Z,16.71
2018-08-19T03:12:38.266Z,16.70
2018-08-19T03:15:09.553Z,16.70
2018-08-19T03:17:38.588Z,16.71
2018-08-19T03:20:09.541Z,16.71
2018-08-19T03:22:38.495Z,16.72
2018-08-19T03:25:08.042Z,16.75
2018-08-19T03:27:37.041Z,16.77
2018-08-19T03:30:13.747Z,16.76
2018-08-19T03:33:15.189Z,16.82
2018-08-19T03:35:44.160Z,16.86
2018-08-19T03:38:15.126Z,16.89
2018-08-19T03:40:44.153Z,16.91
2018-08-19T03:43:13.200Z,16.99
2018-08-19T03:45:42.272Z,17.06
2018-08-19T03:48:11.214Z,17.11
2018-08-19T03:50:40.305Z,17.19
2018-08-19T03:53:09.312Z,17.24
2018-08-19T03:55:39.468Z,17.24
2018-08-19T03:58:09.712Z,17.28
2018-08-19T04:00:42.725Z,17.28
2018-08-19T04:03:18.211Z,17.34
2018-08-19T04:05:51.735Z,17.37
2018-08-19T04:08:20.724Z,17.43
2018-08-19T04:10:50.112Z,17.53
2018-08-19T04:13:40.772Z,17.59
2018-08-19T04:16:10.993Z,17.72
2018-08-19T04:18:45.784Z,17.78
2018-08-19T04:21:15.936Z,17.85
2018-08-19T04:23:49.748Z,17.96
2018-08-19T04:26:18.753Z,18.08
2018-08-19T04:28:47.748Z,18.76
2018-08-19T04:31:21.879Z,19.70
2018-08-19T04:33:50.868Z,21.00
2018-08-19T04:36:23.028Z,22.20
2018-08-19T04:38:52.027Z,23.40
2018-08-19T04:41:21.047Z,24.44
2018-08-19T04:43:50.120Z,25.27
2018-08-19T04:46:19.069Z,26.28
2018-08-19T04:48:48.582Z,26.99
2018-08-19T04:51:17.597Z,27.55
2018-08-19T04:53:46.563Z,27.72
2018-08-19T04:56:15.523Z,28.34
2018-08-19T04:58:44.587Z,28.90
2018-08-19T05:01:13.649Z,29.70
2018-08-19T05:03:44.941Z,30.17
2018-08-19T05:06:13.988Z,30.78
2018-08-19T05:08:43.080Z,31.43
2018-08-19T05:11:12.080Z,31.59
2018-08-19T05:13:41.076Z,31.69
2018-08-19T05:16:10.198Z,31.51
2018-08-19T05:18:39.233Z,32.20
2018-08-19T05:21:13.301Z,33.08
2018-08-19T05:23:42.267Z,33.03
2018-08-19T05:26:13.292Z,32.88
2018-08-19T05:28:43.183Z,33.06
2018-08-19T05:31:12.241Z,33.45
2018-08-19T05:33:43.540Z,33.56
2018-08-19T05:36:12.562Z,33.92
2018-08-19T05:38:41.698Z,34.28
2018-08-19T05:41:11.103Z,34.71
2018-08-19T05:43:40.120Z,34.14
2018-08-19T05:46:09.089Z,34.25
2018-08-19T05:48:38.104Z,34.61
2018-08-19T05:51:07.161Z,34.35
2018-08-19T05:53:39.577Z,33.88
2018-08-19T05:56:08.582Z,33.60
2018-08-19T05:58:37.616Z,33.67
2018-08-19T06:01:06.855Z,33.75
2018-08-19T06:03:35.800Z,33.59
2018-08-19T06:06:04.843Z,33.59
2018-08-19T06:08:33.867Z,33.78
2018-08-19T06:11:02.848Z,32.78
2018-08-19T06:13:31.812Z,30.87
2018-08-19T06:16:00.919Z,29.55
2018-08-19T06:18:30.004Z,28.69
2018-08-19T06:20:59.091Z,28.20
2018-08-19T06:23:28.043Z,27.85
2018-08-19T06:25:57.031Z,27.71
2018-08-19T06:28:26.032Z,27.53
2018-08-19T06:30:55.094Z,28.10
2018-08-19T06:33:24.101Z,29.39
2018-08-19T06:35:53.264Z,29.99
2018-08-19T06:38:22.268Z,30.35
2018-08-19T06:40:51.461Z,30.49
2018-08-19T06:43:20.428Z,29.45
2018-08-19T06:45:49.434Z,28.62
2018-08-19T06:48:18.410Z,27.78
2018-08-19T06:50:47.409Z,27.51
2018-08-19T06:53:21.592Z,27.51
2018-08-19T06:55:51.300Z,27.43
2018-08-19T06:58:20.248Z,27.93
2018-08-19T07:00:49.249Z,27.73
2018-08-19T07:03:18.231Z,28.21
2018-08-19T07:06:01.124Z,29.03
2018-08-19T07:08:30.060Z,30.01
2018-08-19T07:10:59.120Z,30.44
2018-08-19T07:13:28.156Z,30.23
2018-08-19T07:15:57.272Z,29.83
2018-08-19T07:18:26.370Z,29.69
2018-08-19T07:20:55.327Z,29.35
2018-08-19T07:23:24.328Z,29.14
2018-08-19T07:25:56.536Z,29.78
2018-08-19T07:28:25.671Z,29.75
2018-08-19T07:30:55.144Z,30.09
2018-08-19T07:33:24.285Z,30.11
2018-08-19T07:35:53.857Z,30.40
2018-08-19T07:38:22.804Z,30.36
2018-08-19T07:40:53.637Z,30.38
2018-08-19T07:43:22.641Z,30.15
2018-08-19T07:45:51.793Z,29.92
2018-08-19T07:48:20.741Z,29.78
2018-08-19T07:50:49.770Z,29.99
2018-08-19T07:53:18.804Z,29.75
2018-08-19T07:55:47.804Z,29.69
2018-08-19T07:58:26.704Z,29.66
2018-08-19T08:00:55.697Z,29.52
2018-08-19T08:03:24.771Z,29.64
2018-08-19T08:05:53.792Z,29.71
2018-08-19T08:08:22.850Z,29.92
2018-08-19T08:10:51.971Z,29.82
2018-08-19T08:13:21.548Z,29.79
2018-08-19T08:15:53.884Z,29.96
2018-08-19T08:18:23.029Z,29.91
2018-08-19T08:20:59.164Z,30.02
2018-08-19T08:23:29.981Z,30.15
2018-08-19T08:25:59.000Z,30.07
2018-08-19T08:28:27.959Z,30.01
2018-08-19T08:30:57.063Z,29.94
2018-08-19T08:33:26.081Z,30.04
2018-08-19T08:35:57.196Z,30.02
2018-08-19T08:38:26.285Z,30.05
2018-08-19T08:40:55.611Z,30.02
2018-08-19T08:43:24.616Z,30.26
2018-08-19T08:45:56.245Z,30.40
2018-08-19T08:48:25.281Z,30.36
2018-08-19T08:50:54.280Z,30.36
2018-08-19T08:53:25.842Z,30.32
2018-08-19T08:55:54.913Z,30.39
2018-08-19T08:58:23.893Z,30.53
2018-08-19T09:00:52.920Z,30.56
2018-08-19T09:03:21.981Z,30.73
2018-08-19T09:05:50.964Z,30.77
2018-08-19T09:08:19.892Z,30.75
2018-08-19T09:10:49.009Z,30.73
2018-08-19T09:13:18.125Z,30.74
2018-08-19T09:15:47.163Z,30.80
2018-08-19T09:18:16.105Z,31.13
2018-08-19T09:20:45.092Z,31.48
2018-08-19T09:23:14.160Z,31.57
2018-08-19T09:25:43.116Z,31.58
2018-08-19T09:28:12.040Z,31.29
2018-08-19T09:30:43.437Z,31.32
2018-08-19T09:33:13.103Z,31.66
2018-08-19T09:35:43.244Z,31.97
2018-08-19T09:38:17.610Z,32.14
2018-08-19T09:40:46.914Z,32.33
2018-08-19T09:43:15.997Z,32.61
2018-08-19T09:45:45.427Z,32.98
2018-08-19T09:48:14.837Z,33.32
2018-08-19T09:50:44.448Z,33.41
2018-08-19T09:53:13.419Z,33.71
2018-08-19T09:55:45.908Z,33.82
2018-08-19T09:58:17.260Z,33.61
2018-08-19T10:00:51.260Z,33.76
2018-08-19T10:03:20.339Z,33.70
2018-08-19T10:05:49.453Z,33.62
2018-08-19T10:08:20.499Z,33.52
2018-08-19T10:10:49.519Z,33.54
2018-08-19T10:13:18.565Z,33.41
2018-08-19T10:15:47.520Z,33.57
2018-08-19T10:18:16.548Z,33.96
2018-08-19T10:20:45.515Z,34.35
2018-08-19T10:23:14.547Z,34.23
2018-08-19T10:25:43.557Z,33.99
2018-08-19T10:28:12.513Z,34.14
2018-08-19T10:30:50.880Z,34.21
2018-08-19T10:33:21.685Z,34.38
2018-08-19T10:35:50.723Z,34.44
2018-08-19T10:38:19.804Z,34.36
2018-08-19T10:40:57.623Z,34.30
2018-08-19T10:43:29.268Z,34.38
2018-08-19T10:45:58.350Z,34.79
2018-08-19T10:48:27.402Z,35.47
2018-08-19T10:50:56.420Z,36.10
2018-08-19T10:53:29.430Z,36.58
2018-08-19T10:56:00.016Z,37.11
2018-08-19T10:58:29.119Z,37.40
2018-08-19T11:00:58.285Z,38.04
2018-08-19T11:03:27.347Z,38.12
2018-08-19T11:05:56.964Z,38.37
2018-08-19T11:08:26.008Z,39.10
2018-08-19T11:10:55.068Z,39.64
2018-08-19T11:13:25.210Z,39.95
2018-08-19T11:15:58.893Z,40.57
2018-08-19T11:18:31.784Z,41.23
2018-08-19T11:21:20.517Z,41.10
2018-08-19T11:23:49.529Z,41.21
2018-08-19T11:26:18.551Z,40.78
2018-08-19T11:28:52.981Z,41.15
2018-08-19T11:31:27.442Z,40.19
2018-08-19T11:33:59.292Z,39.71
2018-08-19T11:36:34.549Z,40.30
2018-08-19T11:39:05.117Z,41.20
2018-08-19T11:41:34.919Z,41.77
2018-08-19T11:44:08.587Z,42.12
2018-08-19T11:46:37.822Z,42.13
2018-08-19T11:49:12.065Z,42.44
2018-08-19T11:52:08.748Z,42.64
2018-08-19T11:54:37.695Z,42.14
2018-08-19T11:57:09.877Z,41.89
2018-08-19T11:59:46.089Z,42.28
2018-08-19T12:02:20.668Z,42.71
2018-08-19T12:04:49.684Z,42.48
2018-08-19T12:07:19.290Z,42.23
2018-08-19T12:09:59.537Z,41.80
2018-08-19T12:12:45.661Z,41.66
2018-08-19T12:15:14.747Z,41.70
2018-08-19T12:17:43.696Z,42.01
2018-08-19T12:20:12.844Z,43.08
2018-08-19T12:22:42.909Z,43.13
2018-08-19T12:25:11.876Z,43.28
2018-08-19T12:27:40.948Z,43.12
2018-08-19T12:30:14.834Z,43.34
2018-08-19T12:32:43.790Z,43.91
2018-08-19T12:35:12.797Z,43.50
2018-08-19T12:37:41.961Z,43.64
2018-08-19T12:40:11.010Z,42.40
2018-08-19T12:42:45.248Z,42.18
2018-08-19T12:45:14.258Z,41.88
2018-08-19T12:47:43.198Z,42.52
2018-08-19T12:50:15.129Z,41.99
2018-08-19T12:52:44.207Z,42.62
2018-08-19T12:55:15.606Z,42.51
2018-08-19T12:57:45.031Z,42.84
2018-08-19T13:00:26.649Z,42.15
2018-08-19T13:02:55.725Z,41.73
2018-08-19T13:05:24.932Z,41.66
2018-08-19T13:07:53.959Z,41.56
2018-08-19T13:10:23.218Z,42.19
2018-08-19T13:12:53.149Z,42.65
2018-08-19T13:15:22.883Z,42.48
2018-08-19T13:17:52.164Z,42.23
2018-08-19T13:20:21.365Z,41.49
2018-08-19T13:23:00.337Z,40.86
2018-08-19T13:25:29.515Z,39.83
2018-08-19T13:27:58.595Z,38.71
2018-08-19T13:30:27.536Z,37.31
2018-08-19T13:32:56.616Z,36.24
2018-08-19T13:35:25.580Z,35.49
2018-08-19T13:37:54.636Z,34.73
2018-08-19T13:40:23.669Z,34.35
2018-08-19T13:42:52.641Z,33.84
2018-08-19T13:45:22.707Z,33.61
2018-08-19T13:47:53.673Z,33.23
2018-08-19T13:50:22.731Z,33.03
2018-08-19T13:52:51.817Z,32.88
2018-08-19T13:55:21.465Z,32.74
2018-08-19T13:57:50.465Z,32.65
2018-08-19T14:00:23.099Z,32.43
2018-08-19T14:02:52.668Z,32.29
2018-08-19T14:05:21.618Z,32.13
2018-08-19T14:07:50.548Z,32.08
2018-08-19T14:10:19.601Z,31.96
2018-08-19T14:12:48.594Z,31.88
2018-08-19T14:15:17.569Z,31.70
2018-08-19T14:17:46.503Z,31.67
2018-08-19T14:20:15.574Z,31.64
2018-08-19T14:22:44.573Z,31.60
2018-08-19T14:25:13.732Z,31.59
2018-08-19T14:27:42.778Z,31.53
2018-08-19T14:30:12.736Z,31.45
2018-08-19T14:32:46.268Z,31.40
2018-08-19T14:35:15.308Z,31.35
2018-08-19T14:37:44.430Z,31.24
2018-08-19T14:40:14.965Z,31.23
2018-08-19T14:42:43.934Z,31.16
2018-08-19T14:45:12.985Z,31.12
2018-08-19T14:47:41.971Z,31.06
2018-08-19T14:50:19.469Z,31.08
2018-08-19T14:52:48.617Z,31.05
2018-08-19T14:55:17.674Z,30.96
2018-08-19T14:57:46.676Z,30.93
2018-08-19T15:00:16.864Z,30.83
2018-08-19T15:02:45.885Z,30.79
2018-08-19T15:05:16.440Z,30.75
2018-08-19T15:07:45.736Z,30.72
2018-08-19T15:10:21.531Z,30.69
2018-08-19T15:12:50.555Z,30.67
2018-08-19T15:15:19.544Z,30.65
2018-08-19T15:18:03.097Z,30.59
2018-08-19T15:20:33.317Z,30.51
2018-08-19T15:23:13.959Z,30.44
2018-08-19T15:25:42.962Z,30.39
2018-08-19T15:28:11.900Z,30.33
2018-08-19T15:30:41.588Z,30.31
2018-08-19T15:33:11.545Z,30.20
2018-08-19T15:35:40.486Z,30.17
2018-08-19T15:38:09.509Z,30.19
2018-08-19T15:40:44.216Z,30.11
2018-08-19T15:43:13.663Z,30.10
2018-08-19T15:45:43.271Z,30.10
2018-08-19T15:48:12.510Z,30.01
2018-08-19T15:50:41.865Z,29.98
2018-08-19T15:53:11.349Z,29.94
2018-08-19T15:55:40.580Z,29.92
2018-08-19T15:58:09.592Z,29.87
2018-08-19T16:00:40.524Z,29.80
2018-08-19T16:03:10.744Z,29.72
2018-08-19T16:05:39.736Z,29.68
2018-08-19T16:08:08.827Z,29.60
2018-08-19T16:10:37.838Z,29.48
2018-08-19T16:13:09.012Z,29.40
2018-08-19T16:15:37.960Z,29.32
2018-08-19T16:18:07.040Z,29.25
2018-08-19T16:20:36.100Z,29.13
2018-08-19T16:23:05.170Z,29.00
2018-08-19T16:25:34.177Z,28.95
2018-08-19T16:28:03.268Z,28.88
2018-08-19T16:30:32.237Z,28.79
2018-08-19T16:33:01.233Z,28.70
2018-08-19T16:35:30.316Z,28.64
2018-08-19T16:37:59.272Z,28.54
2018-08-19T16:40:28.352Z,28.45
2018-08-19T16:42:57.398Z,28.36
2018-08-19T16:45:26.487Z,28.29
2018-08-19T16:47:55.478Z,28.23
2018-08-19T16:50:24.643Z,28.12
2018-08-19T16:52:53.508Z,27.97
2018-08-19T16:55:22.507Z,27.83
2018-08-19T16:57:51.601Z,27.70
2018-08-19T17:00:20.535Z,27.57
2018-08-19T17:02:49.580Z,27.44
2018-08-19T17:05:33.972Z,27.32
2018-08-19T17:08:03.112Z,27.18
2018-08-19T17:10:32.131Z,27.07
2018-08-19T17:13:01.084Z,26.94
2018-08-19T17:15:30.235Z,26.82
2018-08-19T17:17:59.845Z,26.71
2018-08-19T17:20:28.787Z,26.56
2018-08-19T17:22:57.928Z,26.44
2018-08-19T17:25:26.876Z,26.30
2018-08-19T17:27:56.033Z,26.18
2018-08-19T17:30:25.056Z,26.09
2018-08-19T17:33:00.282Z,26.01
2018-08-19T17:35:29.237Z,25.91
2018-08-19T17:37:58.244Z,25.86
2018-08-19T17:40:27.468Z,25.80
2018-08-19T17:42:56.451Z,25.74
2018-08-19T17:45:25.580Z,25.68
2018-08-19T17:47:54.980Z,25.63
2018-08-19T17:50:26.021Z,25.63
2018-08-19T17:52:56.620Z,25.61
2018-08-19T17:55:25.874Z,25.57
2018-08-19T17:57:55.669Z,25.52
2018-08-19T18:00:24.692Z,25.48
2018-08-19T18:02:53.663Z,25.41
2018-08-19T18:05:22.718Z,25.35
2018-08-19T18:07:53.311Z,25.28
2018-08-19T18:10:22.379Z,24.92
2018-08-19T18:12:51.822Z,25.14
2018-08-19T18:15:20.808Z,25.10
2018-08-19T18:17:57.212Z,25.03
2018-08-19T18:20:29.624Z,25.01
2018-08-19T18:22:58.905Z,24.97
2018-08-19T18:25:27.931Z,24.87
2018-08-19T18:27:56.904Z,24.82
2018-08-19T18:30:27.112Z,24.78
2018-08-19T18:32:56.129Z,24.72
2018-08-19T18:35:25.069Z,24.66
2018-08-19T18:37:54.065Z,24.59
2018-08-19T18:40:28.063Z,24.60
2018-08-19T18:42:57.095Z,24.59
2018-08-19T18:45:26.123Z,24.59
2018-08-19T18:48:02.902Z,24.59
2018-08-19T18:50:31.977Z,24.52
2018-08-19T18:53:00.984Z,24.50
2018-08-19T18:55:30.025Z,24.46
2018-08-19T18:57:59.024Z,24.42
2018-08-19T19:00:28.656Z,24.38
2018-08-19T19:03:00.556Z,24.36
2018-08-19T19:05:35.152Z,24.33
2018-08-19T19:08:19.013Z,24.24
2018-08-19T19:10:54.904Z,24.17
2018-08-19T19:13:24.944Z,24.10
2018-08-19T19:15:54.101Z,24.01
2018-08-19T19:18:23.139Z,23.96
2018-08-19T19:20:57.219Z,23.90
2018-08-19T19:23:30.415Z,23.84
2018-08-19T19:26:00.036Z,23.77
2018-08-19T19:28:29.363Z,23.67
2018-08-19T19:31:03.650Z,23.63
2018-08-19T19:33:32.666Z,23.58
2018-08-19T19:36:07.257Z,23.52
2018-08-19T19:38:43.618Z,23.48
2018-08-19T19:41:12.964Z,23.45
2018-08-19T19:43:42.057Z,23.40
2018-08-19T19:46:11.177Z,23.34
2018-08-19T19:48:40.171Z,23.32
2018-08-19T19:51:09.173Z,23.24
2018-08-19T19:53:38.160Z,23.15
2018-08-19T19:56:11.585Z,23.08
2018-08-19T19:58:41.404Z,23.04
2018-08-19T20:01:10.379Z,22.93
2018-08-19T20:03:44.277Z,22.90
2018-08-19T20:06:13.843Z,22.84
2018-08-19T20:08:42.783Z,22.77
2018-08-19T20:11:19.752Z,22.75
2018-08-19T20:13:49.101Z,22.72
2018-08-19T20:16:18.327Z,22.69
2018-08-19T20:18:47.273Z,22.69
2018-08-19T20:21:23.230Z,22.67
2018-08-19T20:23:53.533Z,22.64
2018-08-19T20:26:23.251Z,22.59
2018-08-19T20:28:54.158Z,22.61
2018-08-19T20:31:23.166Z,22.65
2018-08-19T20:33:52.251Z,22.62
2018-08-19T20:36:21.299Z,22.60
2018-08-19T20:38:50.263Z,22.54
2018-08-19T20:41:19.288Z,22.54
2018-08-19T20:43:48.341Z,22.49
2018-08-19T20:46:17.500Z,22.45
2018-08-19T20:48:47.832Z,22.40
2018-08-19T20:51:16.857Z,22.36
2018-08-19T20:53:46.024Z,22.32
2018-08-19T20:56:15.028Z,22.26
2018-08-19T20:58:43.999Z,22.22
2018-08-19T21:01:27.348Z,22.20
2018-08-19T21:03:56.457Z,22.17
2018-08-19T21:06:25.448Z,22.13
2018-08-19T21:08:54.457Z,22.05
2018-08-19T21:11:23.415Z,21.99
2018-08-19T21:13:52.400Z,21.96
2018-08-19T21:16:21.460Z,21.90
2018-08-19T21:18:50.453Z,21.83
2018-08-19T21:21:19.451Z,21.74
2018-08-19T21:23:48.468Z,21.68
2018-08-19T21:26:17.468Z,21.62
2018-08-19T21:29:01.536Z,21.59
2018-08-19T21:31:30.876Z,21.54
2018-08-19T21:34:00.053Z,21.49
2018-08-19T21:36:29.049Z,21.45
2018-08-19T21:38:58.093Z,21.17
2018-08-19T21:41:42.177Z,21.34
2018-08-19T21:44:11.208Z,21.29
2018-08-19T21:46:40.212Z,21.25
2018-08-19T21:49:09.320Z,21.19
2018-08-19T21:51:38.397Z,21.13
2018-08-19T21:54:08.748Z,21.11
2018-08-19T21:56:37.733Z,21.10
2018-08-19T21:59:25.571Z,21.08
2018-08-19T22:01:57.936Z,21.08
2018-08-19T22:04:27.210Z,21.04
2018-08-19T22:06:56.151Z,21.03
2018-08-19T22:09:32.312Z,20.99
2018-08-19T22:12:01.858Z,20.95
2018-08-19T22:14:31.612Z,20.89
2018-08-19T22:17:05.788Z,20.86
2018-08-19T22:19:34.796Z,20.77
2018-08-19T22:22:03.753Z,20.77
2018-08-19T22:24:32.859Z,20.75
2018-08-19T22:27:17.200Z,20.74
2018-08-19T22:29:46.140Z,20.66
2018-08-19T22:32:15.157Z,20.61
2018-08-19T22:34:44.092Z,20.59
2018-08-19T22:37:13.161Z,20.56
2018-08-19T22:39:42.286Z,20.52
2018-08-19T22:42:11.261Z,20.52
2018-08-19T22:44:40.263Z,20.52
2018-08-19T22:47:09.208Z,20.54
2018-08-19T22:49:38.212Z,20.57
2018-08-19T22:52:38.740Z,20.59
2018-08-19T22:55:07.732Z,20.59
2018-08-19T22:57:36.721Z,20.57
2018-08-19T23:00:07.964Z,20.59
2018-08-19T23:02:36.916Z,20.59
2018-08-19T23:05:06.119Z,20.58
2018-08-19T23:07:35.124Z,20.57
2018-08-19T23:10:04.136Z,20.56
2018-08-19T23:12:33.075Z,20.55
2018-08-19T23:15:12.972Z,20.55
2018-08-19T23:17:42.030Z,20.54
2018-08-19T23:20:11.108Z,20.54
2018-08-19T23:22:40.028Z,20.57
2018-08-19T23:25:08.959Z,20.58
2018-08-19T23:27:38.908Z,20.63
2018-08-19T23:30:07.848Z,20.62
2018-08-19T23:32:37.040Z,20.63
2018-08-19T23:35:06.037Z,20.65
2018-08-19T23:37:35.012Z,20.63
2018-08-19T23:40:04.217Z,20.64
2018-08-19T23:42:33.360Z,20.62
2018-08-19T23:45:02.365Z,20.63
2018-08-19T23:47:31.296Z,20.62
2018-08-19T23:50:00.295Z,20.60
2018-08-19T23:52:29.241Z,20.58
2018-08-19T23:54:58.224Z,20.55
2018-08-19T23:57:27.184Z,20.49
2018-08-19T23:59:56.235Z,20.46
